首页
METAR-TAF:

METAR-TAF

机场 :

Petawawa, 安大略省, 加拿大

纬度: 45-57N, 经度: 077-19W, 海拔: 130米

当前天气观测

该预报发布于1小时和0分钟前的13:05 UTC
风速5节,风向东转东南,在南转南东之间变化
温度 0°C
湿度 86%
气压 1015 hPa
能見度: 6.4公里
阴天层高于1000英尺
阴天层高于3800英尺

METAR: CYWA 151305Z AUTO 12005KT 080V150 4SM OVC010 OVC038 M00/M02 A2996

时间: 09:05 (14:05 UTC)

预报

该预报发布于2小时和35分钟前的11:30 UTC
预报有效从15日的 12点(UTC)到 16日的 12点(UTC)
风速3节,风向多变
能見度: 3.2公里
多云层高于600英尺
阴天层高于3000英尺
轻雾
短暂存在
从 15日的 12点(UTC)到 15日的 15点(UTC)
能見度: 6.4公里
散云层高于600英尺
多云层高于1000英尺
阴天层高于3000英尺
轻雾
几率 30%
从 15日的 12点(UTC)到 15日的 15点(UTC)
能見度: 0.8公里
层高于200英尺
冻雾
从 15日的 1500点(UTC)
风速8节,风向东转东南
能見度: 10公里
散云层高于600英尺
阴天层高于1500英尺
短暂存在
从 15日的 15点(UTC)到 15日的 18点(UTC)
能見度: 8.0公里
多云层高于600英尺
阴天层高于1500英尺
轻雾
从 15日的 1800点(UTC)
风速8节,风向东转东南,有时为18节阵风
能見度: 10公里
散云层高于600英尺
阴天层高于1200英尺
从 16日的 0400点(UTC)
风速8节,风向东转东南
能見度: 8.0公里
散云层高于600英尺
阴天层高于1000英尺
小阵雪, 轻雾
从 16日的 0800点(UTC)
风速8节,风向东转东南
能見度: 3.2公里
多云层高于600英尺
小阵雪

TAF: CYWA 151130Z 1512/1612 VRB03KT 2SM BR BKN006 OVC030 TEMPO 1512/1515 4SM BR SCT006 BKN010 OVC030 PROB30 1512/1515 1/2SM FZFG VV002 FM151500 12008KT P6SM SCT006 OVC015 TEMPO 1515/1518 5SM BR BKN006 OVC015 FM151800 12008G18KT P6SM SCT006 OVC012 FM160400 12008KT 5SM -SHSN BR SCT006 OVC010 FM160800 12008KT 2SM -SHSN BKN006 RMK FCST BASED ON AUTO OBS. NXT FCST BY 151800Z

超过4000个机场的气象观测和天气预报(METAR&TAF报告)。

可查询的气象台以黄色和红色小点在地图上表示。

将鼠标移到小点上方,可查看气象台名称。

然后点击查看天气观测和预报。

如需切换地图:点击带黑十字的绿色按钮放大地图;点击带横线的绿色按钮缩小地图;或者点击绿色箭头查看邻近地区的地图。


METAR-TAF: